Time;durP1;ratioP1;P1;durP2;ratioP2;P2;SDS_P1;SDS_P2;PMS_P1;PMS_P2;Temp;Humidity;BMP_temperature;BMP_pressure;BME280_temperature;BME280_humidity;BME280_pressure;Samples;Min_cycle;Max_cycle;Signal;HPM_P1;HPM_P2
2022/06/23 00:00:04;;;;;;;6.47;4.95;;;13.70;99.90;;;;;;5021667;28;20038;-63
2022/06/23 00:02:33;;;;;;;6.32;5.50;;;13.60;99.90;;;;;;5026743;28;20076;-63
2022/06/23 00:05:04;;;;;;;7.80;5.30;;;13.60;99.90;;;;;;5052549;28;20052;-63
2022/06/23 00:07:36;;;;;;;6.32;4.97;;;13.70;99.90;;;;;;5035121;28;20053;-63
2022/06/23 00:10:24;;;;;;;6.05;4.20;;;13.80;99.90;;;;;;5034730;28;20061;-63
2022/06/23 00:12:52;;;;;;;5.68;4.70;;;13.50;99.90;;;;;;5049205;28;20493;-63
2022/06/23 00:15:20;;;;;;;6.85;5.28;;;13.50;99.90;;;;;;5026973;28;20125;-63
2022/06/23 00:17:59;;;;;;;7.32;4.65;;;13.50;99.90;;;;;;5054625;28;20049;-63
2022/06/23 00:20:41;;;;;;;5.97;5.03;;;13.60;99.90;;;;;;5034436;28;20124;-63
2022/06/23 00:23:28;;;;;;;6.60;5.15;;;13.80;99.90;;;;;;5041261;28;20045;-63
2022/06/23 00:26:01;;;;;;;6.80;5.15;;;13.90;99.90;;;;;;5024677;28;20048;-63
2022/06/23 00:28:50;;;;;;;6.65;3.97;;;14.00;99.90;;;;;;5027586;28;20053;-63
2022/06/23 00:31:38;;;;;;;7.25;4.60;;;13.80;99.90;;;;;;5024452;28;20060;-63
2022/06/23 00:34:22;;;;;;;6.38;4.68;;;13.80;99.90;;;;;;5028941;28;20045;-63
2022/06/23 00:37:11;;;;;;;4.40;3.97;;;13.40;99.90;;;;;;5028144;28;20056;-63
2022/06/23 00:39:43;;;;;;;6.35;4.95;;;13.50;99.90;;;;;;5045803;28;20048;-63
2022/06/23 00:42:17;;;;;;;6.50;5.07;;;13.50;99.90;;;;;;5027212;28;20048;-62
2022/06/23 00:45:04;;;;;;;7.05;6.03;;;13.50;99.90;;;;;;5026051;28;20107;-63
2022/06/23 00:47:48;;;;;;;8.80;5.53;;;13.60;99.90;;;;;;5046417;28;20387;-63
2022/06/23 00:50:26;;;;;;;6.35;4.90;;;13.70;99.90;;;;;;5027933;28;20065;-63
2022/06/23 00:53:14;;;;;;;6.07;4.82;;;13.60;99.90;;;;;;5040451;28;20514;-63
2022/06/23 00:55:42;;;;;;;5.03;4.25;;;13.40;99.90;;;;;;5050513;28;20760;-63
2022/06/23 00:58:35;;;;;;;5.22;4.15;;;13.30;99.90;;;;;;5045083;28;20041;-63
2022/06/23 01:01:29;;;;;;;4.88;4.38;;;13.30;99.90;;;;;;5035128;28;20056;-63
2022/06/23 01:04:03;;;;;;;6.20;4.88;;;13.20;99.90;;;;;;5030285;28;20068;-63
2022/06/23 01:06:38;;;;;;;8.07;5.72;;;13.10;99.90;;;;;;5044447;28;20091;-63
2022/06/23 01:09:21;;;;;;;7.87;6.47;;;13.10;99.90;;;;;;4972298;28;2200178;-63
2022/06/23 01:12:14;;;;;;;7.40;5.85;;;13.20;99.90;;;;;;5028159;28;20057;-63
2022/06/23 01:15:05;;;;;;;8.18;6.55;;;13.30;99.90;;;;;;5039855;28;20448;-63
2022/06/23 01:17:40;;;;;;;9.68;6.65;;;13.30;99.90;;;;;;5043925;28;20125;-63
2022/06/23 01:20:44;;;;;;;8.02;5.93;;;13.40;99.90;;;;;;5025697;28;20099;-63
2022/06/23 01:23:35;;;;;;;7.28;6.28;;;13.40;99.90;;;;;;5037962;28;20073;-63
2022/06/23 01:26:55;;;;;;;8.10;7.20;;;13.30;99.90;;;;;;5035291;28;20077;-63
2022/06/23 01:29:37;;;;;;;8.75;7.05;;;13.40;99.90;;;;;;5003582;28;20049;-63
2022/06/23 01:32:28;;;;;;;11.30;7.93;;;13.50;99.90;;;;;;5007160;28;20863;-63
2022/06/23 01:35:18;;;;;;;11.02;7.55;;;13.50;99.90;;;;;;4960550;28;20137;-63
2022/06/23 01:37:56;;;;;;;8.05;6.63;;;13.50;99.90;;;;;;4997837;28;20557;-63
2022/06/23 01:40:41;;;;;;;11.57;7.10;;;13.70;99.90;;;;;;4991535;28;20075;-63
2022/06/23 01:43:15;;;;;;;9.32;7.35;;;13.70;99.90;;;;;;5013474;28;20050;-63
2022/06/23 01:45:53;;;;;;;8.98;7.47;;;13.70;99.90;;;;;;4993869;28;20052;-63
2022/06/23 01:51:22;;;;;;;10.27;7.28;;;13.50;99.90;;;;;;5008749;28;20042;-63
2022/06/23 01:53:48;;;;;;;;;;;13.50;99.90;;;;;;5011702;28;20049;-63
2022/06/23 01:56:24;;;;;;;11.05;7.90;;;13.50;99.90;;;;;;5006153;28;19933;-63
2022/06/23 01:59:18;;;;;;;8.27;6.95;;;13.50;99.90;;;;;;4995067;28;20054;-63
2022/06/23 02:01:52;;;;;;;8.63;6.90;;;13.50;99.90;;;;;;4999302;28;20081;-63
2022/06/23 02:04:27;;;;;;;8.35;7.50;;;13.40;99.90;;;;;;5026806;28;20042;-63
2022/06/23 02:06:58;;;;;;;10.73;7.97;;;13.40;99.90;;;;;;5033655;28;20132;-63
2022/06/23 02:09:40;;;;;;;10.57;8.02;;;13.30;99.90;;;;;;5043975;28;20061;-63
2022/06/23 02:12:20;;;;;;;10.10;7.95;;;13.20;99.90;;;;;;5029676;28;20050;-63
2022/06/23 02:15:03;;;;;;;11.77;8.15;;;13.30;99.90;;;;;;5017880;28;20045;-63
2022/06/23 02:17:52;;;;;;;10.63;7.28;;;13.40;99.90;;;;;;5025816;28;20112;-63
2022/06/23 02:20:26;;;;;;;9.90;7.47;;;13.50;99.90;;;;;;5025111;28;20120;-63
2022/06/23 02:23:03;;;;;;;10.60;7.90;;;13.40;99.90;;;;;;5031025;28;20052;-63
2022/06/23 02:25:34;;;;;;;11.60;9.15;;;13.40;99.90;;;;;;5050580;28;20078;-63
2022/06/23 02:28:36;;;;;;;11.93;8.40;;;13.30;99.90;;;;;;5027068;28;20099;-63
2022/06/23 02:31:31;;;;;;;10.43;8.55;;;13.40;99.90;;;;;;5025980;28;20061;-63
2022/06/23 02:34:12;;;;;;;11.18;7.93;;;13.20;99.90;;;;;;5036177;28;20048;-63
2022/06/23 02:37:02;;;;;;;10.68;8.40;;;13.10;99.90;;;;;;5039771;28;20041;-63
2022/06/23 02:39:49;;;;;;;10.52;8.00;;;13.10;99.90;;;;;;5031189;28;20051;-63
2022/06/23 02:42:19;;;;;;;11.98;7.90;;;12.90;99.90;;;;;;5031676;28;20044;-63
2022/06/23 02:44:51;;;;;;;10.02;7.22;;;12.80;99.90;;;;;;5046118;28;20041;-63
2022/06/23 02:47:40;;;;;;;8.15;6.53;;;12.50;99.90;;;;;;5027177;28;20130;-63
2022/06/23 02:50:29;;;;;;;9.75;7.57;;;12.30;99.90;;;;;;5018864;28;20056;-63
2022/06/23 02:53:24;;;;;;;11.40;8.90;;;12.20;99.90;;;;;;5040447;28;20052;-63
2022/06/23 02:56:21;;;;;;;10.32;7.60;;;12.10;99.90;;;;;;5045061;28;20053;-63
2022/06/23 02:58:55;;;;;;;11.35;9.30;;;12.10;99.90;;;;;;5040095;28;20136;-63
2022/06/23 03:01:37;;;;;;;9.45;7.45;;;12.00;99.90;;;;;;5052203;28;20315;-63
2022/06/23 03:04:29;;;;;;;8.88;7.43;;;11.90;99.90;;;;;;5021943;28;20045;-63
2022/06/23 03:07:20;;;;;;;25.95;6.97;;;11.80;99.90;;;;;;5021322;28;20136;-63
2022/06/23 03:10:03;;;;;;;9.25;7.65;;;11.80;99.90;;;;;;5017936;28;20041;-63
2022/06/23 03:12:45;;;;;;;17.98;9.93;;;11.70;99.90;;;;;;5027199;28;20053;-63
2022/06/23 03:15:25;;;;;;;13.02;7.97;;;11.80;99.90;;;;;;5042277;28;20052;-63
2022/06/23 03:18:00;;;;;;;107.57;11.45;;;11.50;99.90;;;;;;5037254;28;20053;-63
2022/06/23 03:20:37;;;;;;;47.42;7.53;;;11.50;99.90;;;;;;5044128;28;20180;-63
2022/06/23 03:23:30;;;;;;;11.95;8.95;;;11.40;99.90;;;;;;5027155;28;20037;-63
2022/06/23 03:26:03;;;;;;;15.13;11.07;;;11.40;99.90;;;;;;5024959;28;20053;-62
2022/06/23 03:28:45;;;;;;;23.00;11.60;;;11.40;99.90;;;;;;5057665;28;20045;-63
2022/06/23 03:31:20;;;;;;;13.43;9.55;;;11.40;99.90;;;;;;5032893;28;20112;-63
2022/06/23 03:34:00;;;;;;;12.25;9.65;;;11.30;99.90;;;;;;5031069;28;20500;-63
2022/06/23 03:36:43;;;;;;;11.23;9.18;;;11.30;99.90;;;;;;5011253;28;20046;-63
2022/06/23 03:42:10;;;;;;;10.90;8.35;;;11.50;99.90;;;;;;5031608;28;20517;-63
2022/06/23 03:44:54;;;;;;;11.27;8.23;;;11.70;99.90;;;;;;5020745;28;20053;-62
2022/06/23 03:47:48;;;;;;;10.90;8.38;;;11.90;99.90;;;;;;5008357;28;20050;-63
2022/06/23 03:50:48;;;;;;;11.55;8.73;;;11.90;99.90;;;;;;5019484;28;20112;-63
2022/06/23 03:53:25;;;;;;;11.23;7.68;;;11.80;99.90;;;;;;4942713;29;20051;-63
2022/06/23 03:56:15;;;;;;;8.20;6.65;;;11.90;99.90;;;;;;4943221;29;20063;-63
2022/06/23 03:58:44;;;;;;;;;;;11.90;99.90;;;;;;4931795;29;20138;-63
2022/06/23 04:01:24;;;;;;;9.70;7.20;;;11.80;99.90;;;;;;4944857;29;19927;-63
2022/06/23 04:03:54;;;;;;;;;;;11.90;99.90;;;;;;4947712;29;20059;-63
2022/06/23 04:06:37;;;;;;;11.55;8.45;;;11.80;99.90;;;;;;4931267;29;19997;-63
2022/06/23 04:09:34;;;;;;;11.65;8.57;;;11.90;99.90;;;;;;4927499;29;20095;-63
2022/06/23 04:12:03;;;;;;;10.50;8.20;;;12.00;99.90;;;;;;4930750;29;20052;-63
2022/06/23 04:14:31;;;;;;;12.07;8.82;;;12.10;99.90;;;;;;4943955;29;20044;-63
2022/06/23 04:17:27;;;;;;;12.38;9.15;;;12.10;99.90;;;;;;4944134;29;20052;-63
2022/06/23 04:20:03;;;;;;;12.27;8.38;;;12.40;99.90;;;;;;4946472;29;20583;-63
2022/06/23 04:22:40;;;;;;;13.35;8.57;;;12.30;99.90;;;;;;4931331;29;20067;-63
2022/06/23 04:25:11;;;;;;;12.98;9.23;;;12.50;99.90;;;;;;4946093;29;20158;-63
2022/06/23 04:27:48;;;;;;;13.43;9.98;;;12.60;99.90;;;;;;4946363;28;20107;-63
2022/06/23 04:30:25;;;;;;;13.27;9.82;;;12.70;99.90;;;;;;5027168;28;20056;-63
2022/06/23 04:32:52;;;;;;;13.75;10.05;;;12.70;99.90;;;;;;5020520;28;20049;-63
2022/06/23 04:35:25;;;;;;;15.45;10.48;;;12.90;99.90;;;;;;5043572;28;20045;-63
2022/06/23 04:37:56;;;;;;;13.30;10.55;;;12.90;99.90;;;;;;5013898;28;20109;-63
2022/06/23 04:40:30;;;;;;;14.55;10.98;;;13.10;99.90;;;;;;5024167;28;20077;-63
2022/06/23 04:43:02;;;;;;;15.60;12.55;;;13.00;99.90;;;;;;5027919;28;20534;-63
2022/06/23 04:45:40;;;;;;;18.05;13.15;;;13.10;99.90;;;;;;5028551;28;20049;-63
2022/06/23 04:48:26;;;;;;;16.63;12.48;;;13.20;99.90;;;;;;5026222;28;20409;-63
2022/06/23 04:51:23;;;;;;;20.60;13.73;;;13.20;99.90;;;;;;5026840;28;20502;-63
2022/06/23 04:54:01;;;;;;;21.45;13.77;;;13.40;99.90;;;;;;5027669;28;20053;-63
2022/06/23 04:56:47;;;;;;;18.42;12.98;;;13.50;99.90;;;;;;5038294;28;20055;-63
2022/06/23 04:59:32;;;;;;;19.95;13.70;;;13.50;99.90;;;;;;5027872;28;20209;-63
2022/06/23 05:02:12;;;;;;;17.15;12.80;;;13.50;99.90;;;;;;5030184;28;20045;-63
2022/06/23 05:04:40;;;;;;;18.67;13.60;;;13.60;99.90;;;;;;5033636;28;20050;-63
2022/06/23 05:07:24;;;;;;;19.42;13.77;;;13.80;99.90;;;;;;5045027;28;20100;-63
2022/06/23 05:09:54;;;;;;;16.98;12.25;;;13.80;99.90;;;;;;5023102;28;20069;-62
2022/06/23 05:12:30;;;;;;;16.63;12.60;;;13.80;99.90;;;;;;5015809;28;20054;-62
2022/06/23 05:15:02;;;;;;;15.65;12.77;;;13.90;99.90;;;;;;5016489;28;20052;-62
2022/06/23 05:17:33;;;;;;;18.85;13.25;;;14.00;99.90;;;;;;5018315;28;20049;-62
2022/06/23 05:20:04;;;;;;;20.05;14.07;;;14.10;99.90;;;;;;5038678;28;20052;-63
2022/06/23 05:22:44;;;;;;;17.48;13.63;;;14.10;99.90;;;;;;5000619;28;20065;-63
2022/06/23 05:25:16;;;;;;;19.63;14.75;;;14.30;99.90;;;;;;5036017;28;20081;-63
2022/06/23 05:27:48;;;;;;;18.02;14.05;;;14.30;99.90;;;;;;5022391;28;20046;-64
2022/06/23 05:30:39;;;;;;;17.50;13.55;;;14.40;99.90;;;;;;5039352;28;20057;-62
2022/06/23 05:33:17;;;;;;;17.00;14.45;;;14.50;99.90;;;;;;5041422;28;20037;-62
2022/06/23 05:35:50;;;;;;;16.25;13.60;;;14.60;99.90;;;;;;5029082;28;20052;-62
2022/06/23 05:38:41;;;;;;;17.58;13.23;;;14.60;99.90;;;;;;5033388;28;20060;-63
2022/06/23 05:41:28;;;;;;;18.60;13.43;;;14.70;99.90;;;;;;5044630;28;20041;-63
2022/06/23 05:43:57;;;;;;;19.67;14.32;;;14.90;99.90;;;;;;5037381;28;20060;-62
2022/06/23 05:46:26;;;;;;;18.67;13.82;;;15.00;99.90;;;;;;5040539;28;20177;-65
2022/06/23 05:49:10;;;;;;;16.08;13.93;;;15.00;99.90;;;;;;5016497;28;20101;-64
2022/06/23 05:51:50;;;;;;;16.63;13.48;;;15.10;99.90;;;;;;5052821;28;20045;-65
2022/06/23 05:54:33;;;;;;;18.77;13.88;;;15.10;99.90;;;;;;5062842;28;20040;-64
2022/06/23 05:57:17;;;;;;;17.73;13.52;;;15.20;99.90;;;;;;5059628;28;20103;-64
2022/06/23 05:59:47;;;;;;;17.73;14.27;;;15.30;99.90;;;;;;5045692;28;20053;-64
2022/06/23 06:02:21;;;;;;;21.25;13.75;;;15.30;99.90;;;;;;5045883;28;20041;-64
2022/06/23 06:04:52;;;;;;;18.55;13.52;;;15.40;99.90;;;;;;5041579;28;20049;-64
2022/06/23 06:07:39;;;;;;;19.08;14.07;;;15.60;99.90;;;;;;5045970;28;20082;-64
2022/06/23 06:10:15;;;;;;;19.30;13.75;;;15.50;99.90;;;;;;5064986;28;20099;-65
2022/06/23 06:12:43;;;;;;;16.23;13.73;;;15.60;99.90;;;;;;5046734;28;20053;-68
2022/06/23 06:15:24;;;;;;;20.25;14.63;;;15.70;99.90;;;;;;5046022;28;20052;-66
2022/06/23 06:18:01;;;;;;;17.85;14.07;;;15.80;99.90;;;;;;5049053;28;20104;-67
2022/06/23 06:20:27;;;;;;;19.30;14.68;;;15.90;99.90;;;;;;5071315;28;20199;-67
2022/06/23 06:23:06;;;;;;;20.02;14.43;;;16.00;99.90;;;;;;5047595;28;20052;-66
2022/06/23 06:25:39;;;;;;;16.20;13.30;;;16.20;99.90;;;;;;5056985;28;20080;-67
2022/06/23 06:28:19;;;;;;;19.15;13.85;;;16.20;99.90;;;;;;5074870;28;20045;-67
2022/06/23 06:31:13;;;;;;;15.60;12.75;;;16.40;99.90;;;;;;5046539;28;22868;-67
2022/06/23 06:34:02;;;;;;;18.55;13.57;;;16.50;99.90;;;;;;5046976;28;20056;-67
2022/06/23 06:36:37;;;;;;;15.02;12.95;;;16.50;99.90;;;;;;5059111;28;20049;-67
2022/06/23 06:39:27;;;;;;;16.58;12.93;;;16.60;99.90;;;;;;5045692;28;20060;-67
2022/06/23 06:42:00;;;;;;;16.60;12.73;;;16.70;99.90;;;;;;5059054;28;20401;-67
2022/06/23 06:44:26;;;;;;;14.77;11.43;;;16.80;99.90;;;;;;5063485;28;20045;-67
2022/06/23 06:46:54;;;;;;;18.55;13.68;;;16.70;99.90;;;;;;5064664;28;20048;-67
2022/06/23 06:49:23;;;;;;;15.55;13.45;;;16.80;99.90;;;;;;5061336;28;20041;-66
2022/06/23 06:51:52;;;;;;;17.52;12.27;;;17.00;99.90;;;;;;5061875;28;20041;-66
2022/06/23 06:54:24;;;;;;;17.48;12.35;;;17.10;99.90;;;;;;5047194;28;20053;-65
2022/06/23 06:56:55;;;;;;;17.73;12.27;;;17.10;99.90;;;;;;5035903;28;20045;-66
2022/06/23 06:59:28;;;;;;;15.98;12.80;;;17.20;99.90;;;;;;5066464;28;20055;-66
2022/06/23 07:02:00;;;;;;;15.25;11.90;;;17.30;99.90;;;;;;5064462;28;20397;-66
2022/06/23 07:04:32;;;;;;;15.90;12.15;;;17.50;99.90;;;;;;5052049;28;20072;-66
2022/06/23 07:07:03;;;;;;;17.48;11.82;;;17.60;99.90;;;;;;5069211;28;20485;-66
2022/06/23 07:09:47;;;;;;;14.60;11.40;;;17.70;99.90;;;;;;5044199;28;20420;-66
2022/06/23 07:12:18;;;;;;;15.68;11.57;;;17.70;99.90;;;;;;5045061;28;20041;-66
2022/06/23 07:15:00;;;;;;;16.02;10.77;;;17.80;99.90;;;;;;5045818;28;20049;-66
2022/06/23 07:17:34;;;;;;;13.48;11.18;;;17.80;99.90;;;;;;5042850;28;20051;-65
2022/06/23 07:20:12;;;;;;;12.90;10.98;;;17.90;99.90;;;;;;5044471;28;20040;-65
2022/06/23 07:22:46;;;;;;;18.48;11.93;;;17.90;99.90;;;;;;5062696;28;20041;-65
2022/06/23 07:25:17;;;;;;;15.35;11.88;;;18.10;99.90;;;;;;5062827;28;20084;-65
2022/06/23 07:27:55;;;;;;;16.23;11.30;;;18.30;99.90;;;;;;5065826;28;20070;-65
2022/06/23 07:30:28;;;;;;;16.90;11.68;;;18.30;99.90;;;;;;5069426;28;20497;-65
2022/06/23 07:33:20;;;;;;;14.80;10.35;;;18.40;99.90;;;;;;5049937;28;20163;-65
2022/06/23 07:35:55;;;;;;;12.95;10.00;;;18.60;99.90;;;;;;5048364;28;20064;-64
2022/06/23 07:38:32;;;;;;;13.43;10.05;;;18.60;99.90;;;;;;5047840;28;20060;-62
2022/06/23 07:41:18;;;;;;;12.43;10.77;;;18.70;99.90;;;;;;5065963;28;20087;-62
2022/06/23 07:43:51;;;;;;;14.48;9.15;;;18.80;99.90;;;;;;5066983;28;20045;-62
2022/06/23 07:46:17;;;;;;;15.77;9.90;;;18.90;99.90;;;;;;5049000;28;20040;-63
2022/06/23 07:48:43;;;;;;;13.40;10.23;;;19.00;99.90;;;;;;5041803;28;20538;-63
2022/06/23 07:51:10;;;;;;;12.32;9.50;;;19.00;99.90;;;;;;5067177;28;20447;-62
2022/06/23 07:53:39;;;;;;;13.82;9.27;;;19.10;99.90;;;;;;5061146;28;20065;-63
2022/06/23 07:56:08;;;;;;;11.90;9.37;;;19.00;99.90;;;;;;5049148;28;20044;-63
2022/06/23 07:58:36;;;;;;;11.70;9.48;;;19.10;99.90;;;;;;5046015;28;20308;-64
2022/06/23 08:01:15;;;;;;;10.60;9.25;;;19.20;99.90;;;;;;5048575;28;20055;-66
2022/06/23 08:03:50;;;;;;;12.23;8.93;;;19.30;99.90;;;;;;5048820;28;20136;-66
2022/06/23 08:06:18;;;;;;;14.82;9.52;;;19.30;99.90;;;;;;5040600;28;20043;-66
2022/06/23 08:08:45;;;;;;;12.48;9.98;;;19.30;99.90;;;;;;5040785;28;20048;-66
2022/06/23 08:14:07;;;;;;;12.02;8.63;;;19.40;99.90;;;;;;5045223;28;20060;-66
2022/06/23 08:16:51;;;;;;;12.48;8.50;;;19.40;99.90;;;;;;5034323;28;20078;-66
2022/06/23 08:19:28;;;;;;;12.63;8.63;;;19.50;99.90;;;;;;5028202;28;20147;-66
2022/06/23 08:22:00;;;;;;;11.30;8.50;;;19.60;99.90;;;;;;5046006;28;20041;-66
2022/06/23 08:24:26;;;;;;;10.90;7.80;;;19.70;99.90;;;;;;5043693;28;20537;-66
2022/06/23 08:26:57;;;;;;;11.98;8.27;;;19.90;99.90;;;;;;5040916;28;20049;-66
2022/06/23 08:29:27;;;;;;;9.10;7.85;;;20.10;99.90;;;;;;5039476;28;20049;-66
2022/06/23 08:31:54;;;;;;;9.43;7.03;;;20.20;99.90;;;;;;5042397;28;20048;-66
2022/06/23 08:34:19;;;;;;;8.95;8.00;;;20.40;99.90;;;;;;5044702;28;20052;-66
2022/06/23 08:36:48;;;;;;;12.63;7.35;;;20.40;99.90;;;;;;5043484;28;20405;-66
2022/06/23 08:39:55;;;;;;;11.77;7.20;;;20.50;99.90;;;;;;5039234;28;20048;-66
2022/06/23 08:42:39;;;;;;;9.68;6.57;;;20.60;99.90;;;;;;4984481;28;20171;-66
2022/06/23 08:45:30;;;;;;;8.73;6.18;;;20.60;99.90;;;;;;4983216;28;20078;-66
2022/06/23 08:48:05;;;;;;;8.73;5.75;;;20.70;99.90;;;;;;4985349;28;20047;-66
2022/06/23 08:50:43;;;;;;;11.45;6.22;;;20.80;99.90;;;;;;4969616;28;20120;-66
2022/06/23 08:53:46;;;;;;;13.10;5.93;;;20.90;99.90;;;;;;4985844;28;20594;-66
2022/06/23 08:56:19;;;;;;;9.30;6.05;;;21.00;99.90;;;;;;4985851;28;20047;-66
2022/06/23 08:59:14;;;;;;;7.22;6.18;;;21.10;99.90;;;;;;4969030;28;20043;-66
2022/06/23 09:01:52;;;;;;;11.32;6.50;;;21.30;99.90;;;;;;4964566;28;20128;-66
2022/06/23 09:04:46;;;;;;;7.47;5.70;;;21.30;99.90;;;;;;4985518;28;20077;-66
2022/06/23 09:07:12;;;;;;;7.32;5.70;;;21.50;99.90;;;;;;4969400;28;20046;-66
2022/06/23 09:09:53;;;;;;;7.72;5.93;;;21.60;99.90;;;;;;4957498;28;20174;-66
2022/06/23 09:12:28;;;;;;;8.77;5.90;;;21.60;99.90;;;;;;4964796;28;20094;-66
2022/06/23 09:15:06;;;;;;;6.68;5.43;;;21.70;99.90;;;;;;4950991;28;20059;-66
2022/06/23 09:18:03;;;;;;;7.10;5.18;;;21.80;99.90;;;;;;5026901;28;20061;-66
2022/06/23 09:20:46;;;;;;;7.60;4.68;;;22.00;99.90;;;;;;5022858;28;20050;-66
2022/06/23 09:23:31;;;;;;;9.40;6.00;;;22.00;99.90;;;;;;5035125;28;20050;-66
2022/06/23 09:26:15;;;;;;;5.68;4.45;;;22.20;99.90;;;;;;5031888;28;20062;-66
2022/06/23 09:28:53;;;;;;;5.20;4.15;;;22.20;99.90;;;;;;5012869;28;20056;-66
2022/06/23 09:31:31;;;;;;;7.80;4.60;;;22.40;99.90;;;;;;5012954;28;20054;-66
2022/06/23 09:34:18;;;;;;;6.38;4.70;;;22.50;99.90;;;;;;5025423;28;20041;-66
2022/06/23 09:37:16;;;;;;;7.53;3.85;;;22.60;99.90;;;;;;5032786;28;20049;-66
2022/06/23 09:40:06;;;;;;;7.80;4.05;;;22.70;99.90;;;;;;5020635;28;20054;-66
2022/06/23 09:42:48;;;;;;;6.75;3.83;;;22.80;99.90;;;;;;5020836;28;20076;-66
2022/06/23 09:45:32;;;;;;;7.50;4.18;;;22.80;99.90;;;;;;5020446;28;20045;-66
2022/06/23 09:48:04;;;;;;;9.02;3.90;;;22.80;99.90;;;;;;5026471;28;20057;-66
2022/06/23 09:50:39;;;;;;;6.97;3.75;;;22.80;99.90;;;;;;5023002;28;20041;-66
2022/06/23 09:53:26;;;;;;;8.52;3.90;;;22.90;99.90;;;;;;5027170;28;20053;-66
2022/06/23 09:55:57;;;;;;;8.85;4.35;;;22.90;99.90;;;;;;5007601;28;20053;-67
2022/06/23 09:58:32;;;;;;;6.22;4.10;;;23.10;99.90;;;;;;5008495;28;20045;-66
2022/06/23 10:01:20;;;;;;;7.20;4.40;;;23.10;99.90;;;;;;5022049;28;20049;-66
2022/06/23 10:04:20;;;;;;;5.78;3.85;;;23.10;99.90;;;;;;5036445;28;20532;-66
2022/06/23 10:06:55;;;;;;;5.75;4.00;;;23.30;99.90;;;;;;5027329;28;20536;-66
2022/06/23 10:09:21;;;;;;;6.10;4.30;;;23.40;99.90;;;;;;5015517;28;20147;-66
2022/06/23 10:12:03;;;;;;;4.07;3.67;;;23.50;99.90;;;;;;5043716;28;20092;-66
2022/06/23 10:14:59;;;;;;;6.28;4.05;;;23.60;99.90;;;;;;5047712;28;20067;-66
2022/06/23 10:17:43;;;;;;;4.57;3.72;;;23.70;99.90;;;;;;5038121;28;20046;-66
2022/06/23 10:20:35;;;;;;;9.05;3.92;;;23.80;99.90;;;;;;5022608;28;20064;-66
2022/06/23 10:23:19;;;;;;;5.78;3.75;;;23.90;99.90;;;;;;5055824;28;20045;-66
2022/06/23 10:26:07;;;;;;;4.90;3.35;;;24.00;99.90;;;;;;5045790;28;20478;-66
2022/06/23 10:28:55;;;;;;;8.93;3.70;;;24.10;99.90;;;;;;5040505;28;20125;-66
2022/06/23 10:31:50;;;;;;;7.53;3.45;;;24.20;99.90;;;;;;5056520;28;20127;-66
2022/06/23 10:34:35;;;;;;;5.35;4.00;;;24.40;99.90;;;;;;5044624;28;20045;-66
2022/06/23 10:37:03;;;;;;;3.85;3.30;;;24.50;99.90;;;;;;5043600;28;20087;-66
2022/06/23 10:40:00;;;;;;;5.90;3.42;;;24.60;99.90;;;;;;5037108;28;20109;-67
2022/06/23 10:42:34;;;;;;;5.07;3.20;;;24.70;99.90;;;;;;5025479;28;20045;-67
2022/06/23 10:45:26;;;;;;;5.85;3.40;;;24.60;99.90;;;;;;5036998;28;20077;-66
2022/06/23 10:48:14;;;;;;;8.43;3.13;;;24.70;99.90;;;;;;5041896;28;20049;-66
2022/06/23 10:51:00;;;;;;;3.90;3.38;;;24.70;99.90;;;;;;5033857;28;20055;-66
2022/06/23 10:53:25;;;;;;;6.07;3.55;;;24.70;99.90;;;;;;5035252;28;20092;-67
2022/06/23 10:56:26;;;;;;;4.75;3.40;;;24.80;99.90;;;;;;5036576;28;20065;-67
2022/06/23 10:59:31;;;;;;;4.80;3.17;;;24.90;99.90;;;;;;4981302;28;20051;-67
2022/06/23 11:02:29;;;;;;;5.55;3.50;;;24.90;99.90;;;;;;4952583;28;20050;-67
2022/06/23 11:05:25;;;;;;;5.78;3.67;;;24.90;99.90;;;;;;4958527;28;20054;-66
2022/06/23 11:08:40;;;;;;;4.97;3.50;;;25.10;99.90;;;;;;4985166;28;20079;-67
2022/06/23 11:11:13;;;;;;;5.38;3.42;;;25.20;99.90;;;;;;4945132;29;20052;-66
2022/06/23 11:13:49;;;;;;;5.22;2.72;;;25.40;99.90;;;;;;4949340;29;20397;-67
2022/06/23 11:16:45;;;;;;;6.32;3.00;;;25.40;99.90;;;;;;4929648;29;20075;-67
2022/06/23 11:19:37;;;;;;;4.90;3.17;;;25.50;99.90;;;;;;4938370;29;20063;-67
2022/06/23 11:22:15;;;;;;;5.82;3.40;;;25.60;99.90;;;;;;4932946;29;20055;-67
2022/06/23 11:24:59;;;;;;;4.40;3.38;;;25.60;99.90;;;;;;4927444;29;20185;-67
2022/06/23 11:27:45;;;;;;;6.10;2.70;;;25.70;99.90;;;;;;4950909;28;20051;-67
2022/06/23 11:30:18;;;;;;;4.32;3.00;;;25.70;99.90;;;;;;4971482;28;20050;-67
2022/06/23 11:32:58;;;;;;;4.88;3.03;;;25.70;99.90;;;;;;4968599;28;20067;-67
2022/06/23 11:35:52;;;;;;;4.75;3.42;;;26.00;99.90;;;;;;4952699;28;20067;-67
2022/06/23 11:38:23;;;;;;;3.90;2.63;;;26.00;99.90;;;;;;4952458;28;20065;-67
2022/06/23 11:41:27;;;;;;;3.53;3.20;;;26.00;99.90;;;;;;4957898;28;20062;-67
2022/06/23 11:44:28;;;;;;;5.65;3.00;;;26.10;99.90;;;;;;4999280;28;20046;-67
2022/06/23 11:47:00;;;;;;;4.40;3.22;;;26.20;99.90;;;;;;4982627;28;20054;-67
2022/06/23 11:49:50;;;;;;;3.88;2.90;;;26.30;99.90;;;;;;4982548;28;20082;-67
2022/06/23 11:52:15;;;;;;;5.43;3.08;;;26.30;99.90;;;;;;5001150;28;20174;-67
2022/06/23 11:55:05;;;;;;;4.18;3.40;;;26.30;99.90;;;;;;4986846;28;20051;-67
2022/06/23 11:57:53;;;;;;;7.30;3.33;;;26.30;99.90;;;;;;4986286;28;20058;-67
2022/06/23 12:00:25;;;;;;;5.13;3.15;;;26.50;99.90;;;;;;4980992;28;20085;-67
2022/06/23 12:03:12;;;;;;;4.07;2.80;;;26.70;99.70;;;;;;4980227;28;20047;-67
2022/06/23 12:05:44;;;;;;;16.10;15.27;;;26.80;99.60;;;;;;4942395;28;20469;-67
2022/06/23 12:08:27;;;;;;;4.30;3.47;;;27.00;99.60;;;;;;4930984;28;20194;-66
2022/06/23 12:10:53;;;;;;;5.20;3.53;;;27.10;99.10;;;;;;4986396;28;20046;-65
2022/06/23 12:13:21;;;;;;;3.63;2.75;;;27.20;98.70;;;;;;4999640;28;20046;-65
2022/06/23 12:15:51;;;;;;;4.20;3.25;;;27.20;98.00;;;;;;4981956;28;20046;-65
2022/06/23 12:18:21;;;;;;;4.30;2.75;;;27.20;97.90;;;;;;4977362;28;20093;-66
2022/06/23 12:21:00;;;;;;;5.13;3.50;;;27.30;98.00;;;;;;5032373;28;20059;-65
2022/06/23 12:23:57;;;;;;;4.38;3.00;;;27.40;97.40;;;;;;5034130;28;20083;-65
2022/06/23 12:26:25;;;;;;;4.57;2.95;;;27.60;98.10;;;;;;5045621;28;20063;-66
2022/06/23 12:29:12;;;;;;;6.40;3.35;;;27.50;97.80;;;;;;5050149;28;20045;-66
2022/06/23 12:31:52;;;;;;;4.68;3.28;;;27.70;97.50;;;;;;5045750;28;20045;-66
2022/06/23 12:35:02;;;;;;;4.38;2.80;;;27.70;96.40;;;;;;5052447;28;20181;-66
2022/06/23 12:37:49;;;;;;;3.58;3.28;;;27.80;96.90;;;;;;5033411;28;20084;-66
2022/06/23 12:40:30;;;;;;;6.85;3.17;;;27.80;96.80;;;;;;5024300;28;20702;-66
2022/06/23 12:43:18;;;;;;;6.88;3.63;;;27.70;96.40;;;;;;5031229;28;20057;-65
2022/06/23 12:45:52;;;;;;;5.20;3.42;;;27.80;96.70;;;;;;5023070;28;20790;-66
2022/06/23 12:48:36;;;;;;;3.42;3.13;;;28.10;96.20;;;;;;5015096;28;20057;-66
2022/06/23 12:51:15;;;;;;;4.90;3.63;;;28.00;95.40;;;;;;5039957;28;20092;-66
2022/06/23 12:53:58;;;;;;;6.70;3.63;;;28.30;95.90;;;;;;5033170;28;20041;-66
2022/06/23 12:56:24;;;;;;;3.75;2.95;;;28.50;95.60;;;;;;5061128;28;20087;-66
2022/06/23 12:58:54;;;;;;;4.38;3.00;;;28.90;94.60;;;;;;5029456;28;20049;-66
2022/06/23 13:01:37;;;;;;;4.38;3.30;;;29.00;94.90;;;;;;5039643;28;20045;-66
2022/06/23 13:04:13;;;;;;;6.53;3.38;;;29.10;93.80;;;;;;5033485;28;20053;-66
2022/06/23 13:06:44;;;;;;;5.20;3.13;;;29.20;93.20;;;;;;5047756;28;20057;-66
2022/06/23 13:09:22;;;;;;;4.55;3.50;;;29.10;93.20;;;;;;5042451;28;20041;-66
2022/06/23 13:12:19;;;;;;;4.15;2.88;;;29.20;92.70;;;;;;5036779;28;20105;-66
2022/06/23 13:14:53;;;;;;;4.07;3.50;;;29.60;92.90;;;;;;5003095;28;20125;-66
2022/06/23 13:17:22;;;;;;;5.53;3.25;;;29.80;92.10;;;;;;4989186;28;20053;-65
2022/06/23 13:20:03;;;;;;;;;;;30.10;92.10;;;;;;4996249;28;20149;-66
2022/06/23 13:22:30;;;;;;;4.68;3.60;;;30.50;91.80;;;;;;4993297;28;19921;-66
2022/06/23 13:24:56;;;;;;;4.78;3.28;;;30.70;90.10;;;;;;5003861;28;20098;-66
2022/06/23 13:27:27;;;;;;;4.00;3.33;;;30.90;89.50;;;;;;4987869;28;20057;-66
2022/06/23 13:30:16;;;;;;;4.93;3.70;;;31.20;88.10;;;;;;4996855;28;20049;-66
2022/06/23 13:33:12;;;;;;;4.38;3.10;;;31.10;86.00;;;;;;5003613;28;20050;-66
2022/06/23 13:35:53;;;;;;;3.60;3.30;;;31.30;84.30;;;;;;5003964;28;20409;-66
2022/06/23 13:38:37;;;;;;;5.72;3.38;;;31.80;84.70;;;;;;5005134;28;20069;-66
2022/06/23 13:41:21;;;;;;;3.50;3.20;;;32.40;82.60;;;;;;5014825;28;20060;-67
2022/06/23 13:44:07;;;;;;;4.50;3.22;;;33.10;79.40;;;;;;5011371;28;20057;-67
2022/06/23 13:46:39;;;;;;;6.18;3.83;;;33.60;79.20;;;;;;5010166;28;20380;-67
2022/06/23 13:49:21;;;;;;;5.15;3.72;;;34.10;77.20;;;;;;4989112;28;20146;-67
2022/06/23 13:52:10;;;;;;;3.40;3.00;;;34.50;74.30;;;;;;5010819;28;20046;-66
2022/06/23 13:54:41;;;;;;;;;;;35.00;73.10;;;;;;5007919;28;20142;-67